^^
Your Local Weather - Clay, NY Station Historical Data
Daily Summary for November 22, 2017 Units:  English    Metric   Both
« Previous Day
Next Day »
Daily Weekly Monthly Yearly Custom
  High: Low: Average:
Temperature: 49.2 °F 29.1 °F 36.1 °F
Dew Point: 39.0 °F 20.6 °F 29.6 °F
Humidity: 92% 46% 78%
Wind Speed: 6.0mph 0.0mph 2.6mph
Wind Gust: 13.0mph - -
Wind- - WNW
Pressure: 30.15 in 29.83 in -
Precipitation: 0.10 in    
Historical Graphs
 
 
Tabular Data for November 22, 2017
Time Temperature Dew Point Pressure Wind Wind Speed Wind Gust Humidity Rainfall Rate (Hourly) solar
00:00 49.1 °F 29.2 °F 29.84 in SSW 2.0 mph 2.0 mph 46% 0.00 in 0 W/m2
00:06 49.2 °F 29.3 °F 29.83 in South 2.0 mph 4.0 mph 46% 0.00 in 0 W/m2
00:12 49.1 °F 29.2 °F 29.83 in SSW 2.0 mph 2.0 mph 46% 0.00 in 0 W/m2
00:30 48.8 °F 29.4 °F 29.84 in South 1.0 mph 2.0 mph 47% 0.00 in 0 W/m2
00:36 48.8 °F 29.4 °F 29.84 in South 1.0 mph 2.0 mph 47% 0.00 in 0 W/m2
00:42 48.8 °F 29.4 °F 29.84 in SW 1.0 mph 1.0 mph 47% 0.00 in 0 W/m2
00:54 49.0 °F 29.6 °F 29.83 in SW 1.0 mph 5.0 mph 47% 0.00 in 0 W/m2
01:00 49.0 °F 29.6 °F 29.83 in SW 1.0 mph 1.0 mph 47% 0.00 in 0 W/m2
01:06 48.7 °F 29.4 °F 29.83 in Calm   2.0 mph 47% 0.00 in 0 W/m2
01:12 48.7 °F 29.9 °F 29.83 in Calm   2.0 mph 48% 0.00 in 0 W/m2
01:18 48.8 °F 30.0 °F 29.83 in SW 1.0 mph 2.0 mph 48% 0.00 in 0 W/m2
01:30 49.0 °F 29.6 °F 29.83 in Calm     47% 0.00 in 0 W/m2
01:36 48.9 °F 30.1 °F 29.83 in Calm     48% 0.00 in 0 W/m2
01:42 48.7 °F 30.4 °F 29.83 in Calm     49% 0.00 in 0 W/m2
01:54 47.5 °F 30.7 °F 29.84 in NW 2.0 mph 5.0 mph 52% 0.00 in 0 W/m2
02:00 47.1 °F 32.2 °F 29.84 in WNW 3.0 mph 3.0 mph 56% 0.00 in 0 W/m2
02:18 45.4 °F 36.2 °F 29.85 in NW 2.0 mph 4.0 mph 70% 0.00 in 0 W/m2
02:24 45.0 °F 36.9 °F 29.85 in NW 1.0 mph 2.0 mph 73% 0.00 in 0 W/m2
02:36 44.4 °F 37.6 °F 29.86 in WNW 1.0 mph 3.0 mph 77% 0.00 in 0 W/m2
02:42 44.2 °F 38.1 °F 29.85 in WNW 1.0 mph 4.0 mph 79% 0.00 in 0 W/m2
02:48 44.0 °F 38.2 °F 29.86 in WNW 1.0 mph 4.0 mph 80% 0.00 in 0 W/m2
02:54 43.8 °F 38.3 °F 29.86 in WNW 1.0 mph 2.0 mph 81% 0.00 in 0 W/m2
03:00 43.8 °F 38.3 °F 29.87 in WNW 1.0 mph 1.0 mph 81% 0.00 in 0 W/m2
03:06 43.7 °F 38.6 °F 29.87 in Calm   1.0 mph 82% 0.00 in 0 W/m2
03:12 43.6 °F 38.5 °F 29.87 in WNW 1.0 mph 2.0 mph 82% 0.00 in 0 W/m2
03:18 43.7 °F 38.9 °F 29.87 in WNW 1.0 mph 2.0 mph 83% 0.00 in 0 W/m2
03:24 43.6 °F 38.8 °F 29.87 in WNW 1.0 mph 1.0 mph 83% 0.00 in 0 W/m2
03:30 43.6 °F 38.8 °F 29.87 in Calm   1.0 mph 83% 0.00 in 0 W/m2
03:36 43.5 °F 39.0 °F 29.87 in Calm   1.0 mph 84% 0.00 in 0 W/m2
03:42 43.5 °F 39.0 °F 29.87 in WNW 1.0 mph 4.0 mph 84% 0.00 in 0 W/m2
04:00 43.4 °F 38.9 °F 29.88 in WNW 2.0 mph 2.0 mph 84% 0.00 in 0 W/m2
04:12 43.1 °F 38.6 °F 29.88 in WNW 2.0 mph 2.0 mph 84% 0.00 in 0 W/m2
04:18 43.0 °F 38.8 °F 29.88 in WNW 2.0 mph 2.0 mph 85% 0.00 in 0 W/m2
04:24 42.9 °F 38.7 °F 29.89 in WNW 2.0 mph 2.0 mph 85% 0.00 in 0 W/m2
04:36 42.6 °F 38.7 °F 29.89 in Calm   1.0 mph 86% 0.00 in 0 W/m2
04:42 42.4 °F 38.5 °F 29.89 in WNW 1.0 mph 6.0 mph 86% 0.00 in 0 W/m2
04:48 42.0 °F 38.4 °F 29.89 in NW 3.0 mph 6.0 mph 87% 0.00 in 0 W/m2
04:54 41.5 °F 37.9 °F 29.89 in NW 3.0 mph 4.0 mph 87% 0.00 in 0 W/m2
05:06 40.6 °F 37.0 °F 29.89 in NW 2.0 mph 2.0 mph 87% 0.00 in 0 W/m2
05:24 39.4 °F 36.1 °F 29.90 in NNW 3.0 mph 6.0 mph 88% 0.00 in 0 W/m2
05:36 38.5 °F 35.3 °F 29.92 in NW 4.0 mph 4.0 mph 88% 0.00 in 0 W/m2
05:42 38.2 °F 35.0 °F 29.92 in NW 3.0 mph 4.0 mph 88% 0.00 in 0 W/m2
05:48 37.8 °F 34.6 °F 29.92 in WNW 4.0 mph 5.0 mph 88% 0.00 in 0 W/m2
05:54 37.5 °F 34.6 °F 29.92 in West 4.0 mph 6.0 mph 89% 0.00 in 0 W/m2
06:00 37.0 °F 34.1 °F 29.93 in NW 3.0 mph 3.0 mph 89% 0.00 in 0 W/m2
06:06 36.6 °F 33.7 °F 29.93 in NW 4.0 mph 5.0 mph 89% 0.05 in 0 W/m2
06:12 36.4 °F 33.5 °F 29.93 in NNW 3.0 mph 6.0 mph 89% 0.05 in 0 W/m2
06:18 36.2 °F 33.3 °F 29.93 in NW 4.0 mph 6.0 mph 89% 0.04 in 0 W/m2
06:24 35.9 °F 33.0 °F 29.94 in NW 3.0 mph 4.0 mph 89% 0.00 in 0 W/m2
06:30 35.8 °F 33.2 °F 29.95 in NW 2.0 mph 2.0 mph 90% 0.00 in 0 W/m2
06:36 35.7 °F 33.1 °F 29.95 in NW 3.0 mph 3.0 mph 90% 0.00 in 0 W/m2
06:42 35.5 °F 32.9 °F 29.95 in NNW 3.0 mph 3.0 mph 90% 0.00 in 0 W/m2
06:48 35.5 °F 32.9 °F 29.95 in NNW 2.0 mph 3.0 mph 90% 0.00 in 0 W/m2
06:53 35.4 °F 32.8 °F 29.96 in NNW 1.0 mph 2.0 mph 90% 0.00 in 0 W/m2
07:00 35.4 °F 32.8 °F 29.96 in NW 2.0 mph 2.0 mph 90% 0.00 in 0 W/m2
07:06 35.4 °F 33.0 °F 29.96 in NW 2.0 mph 2.0 mph 91% 0.00 in 0 W/m2
07:12 35.4 °F 33.0 °F 29.97 in NW 1.0 mph 2.0 mph 91% 0.00 in 0 W/m2
07:18 35.4 °F 33.0 °F 29.97 in NW 1.0 mph 2.0 mph 91% 0.00 in 0 W/m2
07:24 35.4 °F 33.0 °F 29.97 in NW 1.0 mph 2.0 mph 91% 0.00 in 0 W/m2
07:30 35.4 °F 33.0 °F 29.97 in NW 1.0 mph 1.0 mph 91% 0.00 in 0 W/m2
07:36 35.5 °F 33.1 °F 29.98 in NW 1.0 mph 2.0 mph 91% 0.00 in 0 W/m2
07:42 35.4 °F 33.0 °F 29.99 in NW 1.0 mph 2.0 mph 91% 0.00 in 7 W/m2
07:54 35.5 °F 33.1 °F 29.99 in NW 1.0 mph 1.0 mph 91% 0.00 in 14 W/m2
08:00 35.5 °F 33.1 °F 30.00 in NW 1.0 mph 1.0 mph 91% 0.00 in 19 W/m2
08:06 35.5 °F 33.1 °F 30.00 in NW 1.0 mph 1.0 mph 91% 0.00 in 14 W/m2
08:12 35.6 °F 33.2 °F 30.00 in Calm     91% 0.00 in 19 W/m2
08:18 35.5 °F 33.1 °F 30.00 in NW 1.0 mph 1.0 mph 91% 0.00 in 18 W/m2
08:24 35.5 °F 33.1 °F 30.00 in NW 1.0 mph 2.0 mph 91% 0.00 in 14 W/m2
08:30 35.4 °F 33.0 °F 30.01 in NW 2.0 mph 2.0 mph 91% 0.00 in 12 W/m2
08:42 35.1 °F 32.7 °F 30.02 in WNW 2.0 mph 2.0 mph 91% 0.12 in 11 W/m2
08:48 34.8 °F 32.4 °F 30.02 in WNW 1.0 mph 2.0 mph 91% 0.09 in 14 W/m2
08:54 34.8 °F 32.4 °F 30.02 in Calm   1.0 mph 91% 0.05 in 32 W/m2
09:12 35.1 °F 33.0 °F 30.01 in Calm     92% 0.00 in 40 W/m2
09:18 35.2 °F 33.1 °F 30.01 in Calm   1.0 mph 92% 0.00 in 30 W/m2
09:24 35.3 °F 33.2 °F 30.02 in Calm     92% 0.00 in 28 W/m2
09:29 35.2 °F 33.1 °F 30.02 in Calm     92% 0.00 in 21 W/m2
09:36 35.1 °F 33.0 °F 30.02 in WNW 1.0 mph 3.0 mph 92% 0.00 in 26 W/m2
09:42 35.1 °F 33.0 °F 30.02 in WNW 1.0 mph 1.0 mph 92% 0.00 in 28 W/m2
09:48 35.2 °F 33.1 °F 30.01 in Calm   2.0 mph 92% 0.00 in 28 W/m2
10:00 35.2 °F 33.1 °F 30.02 in WNW 1.0 mph 1.0 mph 92% 0.00 in 32 W/m2
10:06 35.2 °F 33.1 °F 30.02 in WNW 1.0 mph 1.0 mph 92% 0.00 in 30 W/m2
10:12 35.3 °F 33.2 °F 30.02 in Calm     92% 0.00 in 30 W/m2
10:24 35.4 °F 33.3 °F 30.02 in WNW 1.0 mph 1.0 mph 92% 0.00 in 35 W/m2
10:30 35.5 °F 33.4 °F 30.02 in WNW 1.0 mph 4.0 mph 92% 0.00 in 33 W/m2
10:42 35.7 °F 33.6 °F 30.01 in WSW 2.0 mph 3.0 mph 92% 0.00 in 81 W/m2
10:54 36.1 °F 34.0 °F 30.01 in WNW 2.0 mph 5.0 mph 92% 0.00 in 86 W/m2
11:06 36.3 °F 34.2 °F 30.01 in WSW 3.0 mph 4.0 mph 92% 0.00 in 42 W/m2
11:12 36.3 °F 33.9 °F 30.01 in WSW 2.0 mph 2.0 mph 91% 0.00 in 65 W/m2
11:18 36.4 °F 34.0 °F 30.01 in WSW 2.0 mph 4.0 mph 91% 0.00 in 60 W/m2
11:24 36.3 °F 33.9 °F 30.00 in WSW 3.0 mph 6.0 mph 91% 0.00 in 128 W/m2
11:30 36.6 °F 34.2 °F 30.00 in NW 3.0 mph 4.0 mph 91% 0.00 in 88 W/m2
11:36 36.7 °F 34.0 °F 30.00 in WSW 2.0 mph 5.0 mph 90% 0.00 in 118 W/m2
11:42 36.7 °F 34.0 °F 30.00 in WSW 2.0 mph 3.0 mph 90% 0.00 in 114 W/m2
11:54 37.0 °F 33.8 °F 30.00 in WNW 3.0 mph 4.0 mph 88% 0.00 in 167 W/m2
12:00 37.4 °F 34.2 °F 30.00 in WNW 3.0 mph 3.0 mph 88% 0.00 in 158 W/m2
12:12 37.6 °F 33.2 °F 30.00 in WNW 5.0 mph 5.0 mph 84% 0.00 in 211 W/m2
12:18 37.8 °F 33.4 °F 30.00 in WNW 4.0 mph 5.0 mph 84% 0.00 in 295 W/m2
12:36 36.6 °F 32.5 °F 30.00 in WNW 4.0 mph 8.0 mph 85% 0.00 in 156 W/m2
12:42 36.8 °F 33.0 °F 30.01 in WNW 4.0 mph 4.0 mph 86% 0.00 in 183 W/m2
12:48 36.4 °F 32.3 °F 30.00 in West 5.0 mph 6.0 mph 85% 0.00 in 128 W/m2
12:54 36.2 °F 31.8 °F 30.01 in West 4.0 mph 5.0 mph 84% 0.00 in 81 W/m2
13:00 36.1 °F 31.4 °F 30.01 in West 4.0 mph 5.0 mph 83% 0.00 in 90 W/m2
13:06 36.1 °F 31.4 °F 30.01 in WSW 4.0 mph 5.0 mph 83% 0.00 in 60 W/m2
13:12 36.1 °F 31.1 °F 30.01 in West 3.0 mph 3.0 mph 82% 0.00 in 74 W/m2
13:18 36.0 °F 31.0 °F 30.01 in WNW 3.0 mph 3.0 mph 82% 0.00 in 70 W/m2
13:30 36.0 °F 30.7 °F 30.01 in WNW 4.0 mph 5.0 mph 81% 0.00 in 74 W/m2
13:36 36.1 °F 30.8 °F 30.01 in NNW 3.0 mph 13.0 mph 81% 0.00 in 63 W/m2
13:42 35.9 °F 30.3 °F 30.02 in NW 4.0 mph 6.0 mph 80% 0.00 in 58 W/m2
13:48 35.8 °F 30.2 °F 30.02 in WSW 5.0 mph 9.0 mph 80% 0.00 in 44 W/m2
14:00 35.4 °F 29.8 °F 30.03 in West 5.0 mph 5.0 mph 80% 0.00 in 54 W/m2
14:06 35.2 °F 29.3 °F 30.03 in West 4.0 mph 5.0 mph 79% 0.00 in 54 W/m2
14:12 35.2 °F 29.3 °F 30.03 in WNW 4.0 mph 4.0 mph 79% 0.00 in 72 W/m2
14:24 35.4 °F 29.8 °F 30.03 in WNW 3.0 mph 3.0 mph 80% 0.00 in 69 W/m2
14:29 35.3 °F 29.1 °F 30.03 in NW 3.0 mph 4.0 mph 78% 0.00 in 58 W/m2
14:36 35.2 °F 29.0 °F 30.03 in WNW 4.0 mph 7.0 mph 78% 0.00 in 53 W/m2
14:42 35.2 °F 29.3 °F 30.04 in WNW 5.0 mph 5.0 mph 79% 0.00 in 60 W/m2
14:54 35.1 °F 29.6 °F 30.04 in WNW 5.0 mph 5.0 mph 80% 0.00 in 53 W/m2
14:59 34.9 °F 29.7 °F 30.04 in WNW 4.0 mph 4.0 mph 81% 0.00 in 47 W/m2
15:05 34.6 °F 29.7 °F 30.04 in WNW 4.0 mph 6.0 mph 82% 0.00 in 46 W/m2
15:12 34.2 °F 29.6 °F 30.05 in West 4.0 mph 6.0 mph 83% 0.00 in 47 W/m2
15:18 33.8 °F 29.5 °F 30.05 in West 5.0 mph 7.0 mph 84% 0.00 in 44 W/m2
15:23 33.9 °F 29.9 °F 30.05 in WSW 4.0 mph 6.0 mph 85% 0.00 in 58 W/m2
15:30 33.6 °F 29.0 °F 30.06 in WNW 4.0 mph 4.0 mph 83% 0.00 in 44 W/m2
15:36 33.5 °F 28.9 °F 30.06 in WNW 4.0 mph 4.0 mph 83% 0.00 in 46 W/m2
15:42 33.3 °F 28.7 °F 30.06 in West 4.0 mph 4.0 mph 83% 0.00 in 30 W/m2
15:48 33.1 °F 28.5 °F 30.06 in NW 4.0 mph 8.0 mph 83% 0.00 in 26 W/m2
15:53 33.0 °F 28.1 °F 30.06 in West 4.0 mph 4.0 mph 82% 0.00 in 25 W/m2
15:59 33.1 °F 27.6 °F 30.06 in WNW 5.0 mph 8.0 mph 80% 0.00 in 16 W/m2
16:06 33.0 °F 27.2 °F 30.06 in WSW 5.0 mph 8.0 mph 79% 0.00 in 14 W/m2
16:12 33.0 °F 26.9 °F 30.07 in West 5.0 mph 5.0 mph 78% 0.00 in 11 W/m2
16:18 33.0 °F 26.6 °F 30.08 in WSW 5.0 mph 13.0 mph 77% 0.00 in 5 W/m2
16:23 33.0 °F 25.9 °F 30.08 in West 6.0 mph 7.0 mph 75% 0.00 in 0 W/m2
16:36 32.9 °F 25.8 °F 30.09 in West 5.0 mph 7.0 mph 75% 0.00 in 0 W/m2
16:42 32.8 °F 25.7 °F 30.09 in WNW 4.0 mph 5.0 mph 75% 0.00 in 0 W/m2
16:54 32.6 °F 25.6 °F 30.10 in West 3.0 mph 7.0 mph 75% 0.00 in 0 W/m2
17:06 32.4 °F 25.0 °F 30.10 in WNW 4.0 mph 4.0 mph 74% 0.00 in 0 W/m2
17:12 32.4 °F 24.7 °F 30.10 in West 5.0 mph 8.0 mph 73% 0.00 in 0 W/m2
17:24 32.2 °F 24.5 °F 30.11 in WNW 4.0 mph 5.0 mph 73% 0.00 in 0 W/m2
17:30 32.2 °F 24.2 °F 30.11 in West 4.0 mph 5.0 mph 72% 0.00 in 0 W/m2
17:36 32.2 °F 24.2 °F 30.11 in West 4.0 mph 5.0 mph 72% 0.00 in 0 W/m2
17:48 32.1 °F 23.8 °F 30.11 in WNW 4.0 mph 7.0 mph 71% 0.00 in 0 W/m2
17:53 32.0 °F 23.7 °F 30.11 in SW 4.0 mph 10.0 mph 71% 0.00 in 0 W/m2
18:00 32.1 °F 23.8 °F 30.12 in WNW 5.0 mph 5.0 mph 71% 0.00 in 0 W/m2
18:12 32.0 °F 23.3 °F 30.12 in WSW 5.0 mph 7.0 mph 70% 0.00 in 0 W/m2
18:18 32.0 °F 23.3 °F 30.13 in WNW 5.0 mph 7.0 mph 70% 0.00 in 0 W/m2
18:29 31.9 °F 23.2 °F 30.13 in WNW 4.0 mph 4.0 mph 70% 0.00 in 0 W/m2
18:42 31.8 °F 23.1 °F 30.13 in WNW 3.0 mph 4.0 mph 70% 0.00 in 0 W/m2
18:48 31.7 °F 23.0 °F 30.13 in West 5.0 mph 5.0 mph 70% 0.00 in 0 W/m2
19:00 31.7 °F 23.0 °F 30.14 in West 4.0 mph 4.0 mph 70% 0.00 in 0 W/m2
19:06 31.7 °F 23.0 °F 30.14 in WNW 4.0 mph 4.0 mph 70% 0.00 in 0 W/m2
19:18 31.5 °F 22.8 °F 30.14 in WNW 4.0 mph 4.0 mph 70% 0.00 in 0 W/m2
19:24 31.5 °F 22.8 °F 30.14 in West 4.0 mph 4.0 mph 70% 0.00 in 0 W/m2
19:30 31.4 °F 22.7 °F 30.14 in WNW 3.0 mph 4.0 mph 70% 0.00 in 0 W/m2
19:42 31.3 °F 22.3 °F 30.14 in WNW 3.0 mph 4.0 mph 69% 0.00 in 0 W/m2
19:48 31.2 °F 21.9 °F 30.14 in NW 4.0 mph 5.0 mph 68% 0.00 in 0 W/m2
19:54 31.2 °F 22.2 °F 30.14 in NW 5.0 mph 8.0 mph 69% 0.00 in 0 W/m2
20:00 31.1 °F 21.8 °F 30.14 in WNW 4.0 mph 6.0 mph 68% 0.00 in 0 W/m2
20:06 31.1 °F 21.8 °F 30.14 in NW 5.0 mph 6.0 mph 68% 0.00 in 0 W/m2
20:18 31.0 °F 21.7 °F 30.14 in WNW 4.0 mph 6.0 mph 68% 0.00 in 0 W/m2
20:24 30.9 °F 22.3 °F 30.14 in WNW 3.0 mph 4.0 mph 70% 0.00 in 0 W/m2
20:30 30.9 °F 22.3 °F 30.14 in NW 2.0 mph 2.0 mph 70% 0.00 in 0 W/m2
20:36 30.8 °F 22.5 °F 30.14 in NW 2.0 mph 2.0 mph 71% 0.00 in 0 W/m2
20:42 30.5 °F 22.5 °F 30.14 in NW 4.0 mph 5.0 mph 72% 0.00 in 0 W/m2
20:48 30.4 °F 22.8 °F 30.14 in NW 3.0 mph 5.0 mph 73% 0.00 in 0 W/m2
20:54 30.3 °F 22.7 °F 30.14 in NW 2.0 mph 3.0 mph 73% 0.00 in 0 W/m2
21:00 30.1 °F 22.8 °F 30.14 in NW 2.0 mph 3.0 mph 74% 0.00 in 0 W/m2
21:06 30.1 °F 22.8 °F 30.15 in NW 2.0 mph 3.0 mph 74% 0.00 in 0 W/m2
21:12 30.1 °F 22.8 °F 30.14 in NW 2.0 mph 5.0 mph 74% 0.00 in 0 W/m2
21:18 30.0 °F 22.4 °F 30.14 in WNW 2.0 mph 5.0 mph 73% 0.00 in 0 W/m2
21:23 30.0 °F 22.4 °F 30.14 in NNW 3.0 mph 5.0 mph 73% 0.00 in 0 W/m2
21:30 29.9 °F 22.3 °F 30.14 in WNW 3.0 mph 5.0 mph 73% 0.00 in 0 W/m2
21:36 29.9 °F 22.3 °F 30.14 in NW 3.0 mph 5.0 mph 73% 0.00 in 0 W/m2
21:42 29.9 °F 22.3 °F 30.14 in WNW 3.0 mph 3.0 mph 73% 0.00 in 0 W/m2
21:48 29.8 °F 22.2 °F 30.14 in WNW 3.0 mph 3.0 mph 73% 0.00 in 0 W/m2
21:54 29.8 °F 22.2 °F 30.14 in WNW 2.0 mph 5.0 mph 73% 0.00 in 0 W/m2
22:00 29.8 °F 22.2 °F 30.14 in WNW 2.0 mph 2.0 mph 73% 0.00 in 0 W/m2
22:06 29.8 °F 22.2 °F 30.14 in NW 2.0 mph 4.0 mph 73% 0.00 in 0 W/m2
22:20 29.9 °F 22.0 °F 30.14 in NW 2.0 mph 2.0 mph 72% 0.00 in 0 W/m2
22:24 29.9 °F 22.0 °F 30.14 in WNW 3.0 mph 3.0 mph 72% 0.00 in 0 W/m2
22:26 29.9 °F 22.0 °F 30.14 in WNW 4.0 mph 4.0 mph 72% 0.00 in 0 W/m2
22:32 29.9 °F 22.0 °F 30.14 in WNW 3.0 mph 3.0 mph 72% 0.00 in 0 W/m2
22:38 29.8 °F 21.9 °F 30.14 in WNW 2.0 mph 3.0 mph 72% 0.00 in 0 W/m2
22:44 29.8 °F 22.2 °F 30.14 in WNW 2.0 mph 2.0 mph 73% 0.00 in 0 W/m2
22:52 29.6 °F 22.0 °F 30.14 in NW 2.0 mph 3.0 mph 73% 0.00 in 0 W/m2
22:58 29.5 °F 22.2 °F 30.14 in WNW 3.0 mph 7.0 mph 74% 0.00 in 0 W/m2
23:00 29.5 °F 21.9 °F 30.14 in NW 4.0 mph 4.0 mph 73% 0.00 in 0 W/m2
23:12 29.2 °F 20.6 °F 30.13 in WNW 3.0 mph 4.0 mph 70% 0.00 in 0 W/m2
23:18 29.2 °F 20.6 °F 30.13 in WNW 4.0 mph 8.0 mph 70% 0.00 in 0 W/m2
23:24 29.2 °F 20.6 °F 30.13 in North 4.0 mph 4.0 mph 70% 0.00 in 0 W/m2
23:30 29.2 °F 20.6 °F 30.13 in WNW 2.0 mph 2.0 mph 70% 0.00 in 0 W/m2
23:36 29.2 °F 20.6 °F 30.13 in WNW 2.0 mph 4.0 mph 70% 0.00 in 0 W/m2
23:42 29.2 °F 20.6 °F 30.13 in WNW 2.0 mph 2.0 mph 70% 0.00 in 0 W/m2
23:54 29.1 °F 20.9 °F 30.13 in NNW 1.0 mph 3.0 mph 71% 0.00 in 0 W/m2
Country Meadow, Clay, NY, USA
Compliments of Weather Underground - 2 mb